createdAt,value
2022-10-23T00:01:13.721Z,6.57
2022-10-23T00:03:41.742Z,7.47
2022-10-23T00:06:11.726Z,6.40
2022-10-23T00:08:40.177Z,5.93
2022-10-23T00:11:09.354Z,7.60
2022-10-23T00:13:37.331Z,4.60
2022-10-23T00:16:05.546Z,5.17
2022-10-23T00:18:33.532Z,6.27
2022-10-23T00:21:01.801Z,4.07
2022-10-23T00:23:31.002Z,5.43
2022-10-23T00:25:58.841Z,5.33
2022-10-23T00:28:27.000Z,5.97
2022-10-23T00:30:54.863Z,5.87
2022-10-23T00:33:22.711Z,3.63
2022-10-23T00:35:50.600Z,5.97
2022-10-23T00:38:18.467Z,6.47
2022-10-23T00:40:47.699Z,3.67
2022-10-23T00:43:19.757Z,2.83
2022-10-23T00:45:47.629Z,4.00
2022-10-23T00:48:15.655Z,3.03
2022-10-23T00:50:44.023Z,5.50
2022-10-23T00:53:13.876Z,9.70
2022-10-23T00:55:46.644Z,4.60
2022-10-23T00:58:19.440Z,3.77
2022-10-23T01:00:49.624Z,4.53
2022-10-23T01:03:19.946Z,9.50
2022-10-23T01:05:52.338Z,8.33
2022-10-23T01:08:28.565Z,7.23
2022-10-23T01:11:04.871Z,4.33
2022-10-23T01:13:43.656Z,6.37
2022-10-23T01:16:17.674Z,5.30
2022-10-23T01:18:49.831Z,7.30
2022-10-23T01:21:23.157Z,7.00
2022-10-23T01:24:13.217Z,6.53
2022-10-23T01:26:58.229Z,6.23
2022-10-23T01:29:33.807Z,3.13
2022-10-23T01:32:06.257Z,7.13
2022-10-23T01:34:45.216Z,4.73
2022-10-23T01:37:16.617Z,6.33
2022-10-23T01:39:50.850Z,6.20
2022-10-23T01:42:21.958Z,5.13
2022-10-23T01:44:55.477Z,5.60
2022-10-23T01:47:28.021Z,5.03
2022-10-23T01:50:05.528Z,5.50
2022-10-23T01:52:34.627Z,4.73
2022-10-23T01:55:06.166Z,6.20
2022-10-23T01:57:38.258Z,6.30
2022-10-23T02:00:12.096Z,9.03
2022-10-23T02:02:53.495Z,7.83
2022-10-23T02:05:27.399Z,7.07
2022-10-23T02:07:57.145Z,7.17
2022-10-23T02:10:32.077Z,5.27
2022-10-23T02:13:06.623Z,6.00
2022-10-23T02:15:40.599Z,10.63
2022-10-23T02:18:15.404Z,6.90
2022-10-23T02:20:46.472Z,6.03
2022-10-23T02:23:22.474Z,5.23
2022-10-23T02:25:55.860Z,5.63
2022-10-23T02:28:28.878Z,6.57
2022-10-23T02:31:03.780Z,6.60
2022-10-23T02:33:32.983Z,5.40
2022-10-23T02:36:01.100Z,8.00
2022-10-23T02:38:35.499Z,4.93
2022-10-23T02:41:25.990Z,5.47
2022-10-23T02:44:05.561Z,6.10
2022-10-23T02:46:44.251Z,6.43
2022-10-23T02:49:19.652Z,9.33
2022-10-23T02:51:58.089Z,3.87
2022-10-23T02:54:41.111Z,6.53
2022-10-23T02:57:16.798Z,11.70
2022-10-23T02:59:52.678Z,7.13
2022-10-23T03:02:26.624Z,7.53
2022-10-23T03:04:56.899Z,7.17
2022-10-23T03:07:27.477Z,5.33
2022-10-23T03:10:05.990Z,7.63
2022-10-23T03:12:34.389Z,4.40
2022-10-23T03:15:02.323Z,6.77
2022-10-23T03:17:31.544Z,9.47
2022-10-23T03:20:01.462Z,6.83
2022-10-23T03:22:29.326Z,5.17
2022-10-23T03:24:57.446Z,5.87
2022-10-23T03:27:25.471Z,5.90
2022-10-23T03:29:55.795Z,6.77
2022-10-23T03:32:23.979Z,7.17
2022-10-23T03:34:53.184Z,4.30
2022-10-23T03:37:22.744Z,5.90
2022-10-23T03:39:51.683Z,3.43
2022-10-23T03:42:19.546Z,8.10
2022-10-23T03:44:47.462Z,5.73
2022-10-23T03:47:15.364Z,7.33
2022-10-23T03:49:43.199Z,6.33
2022-10-23T03:52:13.001Z,7.13
2022-10-23T03:54:41.293Z,4.03
2022-10-23T03:57:09.196Z,4.50
2022-10-23T03:59:37.169Z,2.70
2022-10-23T04:02:07.099Z,6.27
2022-10-23T04:04:35.240Z,5.13
2022-10-23T04:07:03.107Z,5.27
2022-10-23T04:09:32.306Z,8.03
2022-10-23T04:12:00.182Z,2.10
2022-10-23T04:14:29.928Z,3.80
2022-10-23T04:16:57.935Z,5.77
2022-10-23T04:19:25.932Z,7.33
2022-10-23T04:21:57.091Z,4.83
2022-10-23T04:24:25.435Z,4.57
2022-10-23T04:26:54.785Z,4.70
2022-10-23T04:29:24.526Z,4.67
2022-10-23T04:31:52.768Z,5.47
2022-10-23T04:34:20.745Z,3.93
2022-10-23T04:36:48.605Z,4.97
2022-10-23T04:39:16.440Z,5.90
2022-10-23T04:41:44.320Z,3.23
2022-10-23T04:44:13.563Z,8.40
2022-10-23T04:46:41.537Z,7.07
2022-10-23T04:49:10.861Z,4.23
2022-10-23T04:52:01.667Z,6.83
2022-10-23T04:54:52.898Z,2.83
2022-10-23T04:57:33.458Z,7.27
2022-10-23T05:00:09.446Z,5.63
2022-10-23T05:02:57.883Z,5.83
2022-10-23T05:05:31.495Z,2.80
2022-10-23T05:08:02.205Z,6.83
2022-10-23T05:10:39.378Z,4.70
2022-10-23T05:13:11.949Z,5.03
2022-10-23T05:18:15.732Z,3.53
2022-10-23T05:20:47.233Z,5.87
2022-10-23T05:23:17.394Z,5.63
2022-10-23T05:25:54.998Z,5.90
2022-10-23T05:28:23.290Z,4.97
2022-10-23T05:30:53.752Z,5.40
2022-10-23T05:33:26.780Z,8.77
2022-10-23T05:35:54.940Z,4.13
2022-10-23T05:38:24.551Z,4.10
2022-10-23T05:40:53.161Z,5.73
2022-10-23T05:43:22.173Z,7.30
2022-10-23T05:46:11.914Z,4.63
2022-10-23T05:49:11.518Z,3.87
2022-10-23T05:52:08.223Z,6.83
2022-10-23T05:55:02.029Z,6.83
2022-10-23T05:57:50.818Z,5.50
2022-10-23T06:00:25.484Z,8.70
2022-10-23T06:03:12.396Z,6.03
2022-10-23T06:05:50.654Z,6.00
2022-10-23T06:08:24.313Z,3.97
2022-10-23T06:10:52.606Z,6.97
2022-10-23T06:13:20.887Z,3.93
2022-10-23T06:15:48.758Z,3.20
2022-10-23T06:18:24.120Z,4.83
2022-10-23T06:21:05.844Z,2.63
2022-10-23T06:23:34.122Z,4.40
2022-10-23T06:26:20.652Z,3.93
2022-10-23T06:28:56.471Z,4.67
2022-10-23T06:31:26.805Z,3.33
2022-10-23T06:33:58.599Z,5.40
2022-10-23T06:36:27.924Z,7.07
2022-10-23T06:39:05.187Z,4.00
2022-10-23T06:41:53.085Z,7.27
2022-10-23T06:44:41.182Z,6.03
2022-10-23T06:47:12.940Z,3.63
2022-10-23T06:50:00.848Z,7.23
2022-10-23T06:52:47.794Z,5.67
2022-10-23T06:55:19.094Z,8.87
2022-10-23T06:57:47.584Z,5.13
2022-10-23T07:00:16.068Z,8.43
2022-10-23T07:02:50.241Z,4.10
2022-10-23T07:05:20.823Z,3.30
2022-10-23T07:07:49.199Z,6.63
2022-10-23T07:10:23.651Z,6.73
2022-10-23T07:13:00.873Z,7.50
2022-10-23T07:15:41.448Z,7.10
2022-10-23T07:18:16.835Z,5.20
2022-10-23T07:21:06.559Z,7.60
2022-10-23T07:23:34.648Z,9.87
2022-10-23T07:26:07.663Z,7.23
2022-10-23T07:28:36.946Z,8.33
2022-10-23T07:31:07.048Z,8.07
2022-10-23T07:33:54.220Z,17.40
2022-10-23T07:36:24.297Z,39.67
2022-10-23T07:38:52.975Z,33.50
2022-10-23T07:41:23.048Z,27.80
2022-10-23T07:43:51.657Z,20.83
2022-10-23T07:46:20.103Z,16.63
2022-10-23T07:48:49.172Z,16.43
2022-10-23T07:51:18.122Z,14.93
2022-10-23T07:53:50.961Z,12.87
2022-10-23T07:56:32.657Z,7.83
2022-10-23T07:59:18.445Z,9.57
2022-10-23T08:01:56.620Z,7.03
2022-10-23T08:04:30.279Z,7.90
2022-10-23T08:07:15.112Z,8.70
2022-10-23T08:09:47.692Z,8.87
2022-10-23T08:12:15.622Z,6.17
2022-10-23T08:14:43.511Z,4.47
2022-10-23T08:17:13.120Z,9.20
2022-10-23T08:19:58.519Z,7.47
2022-10-23T08:22:31.271Z,7.70
2022-10-23T08:25:00.641Z,5.77
2022-10-23T08:27:28.553Z,3.57
2022-10-23T08:29:56.614Z,4.13
2022-10-23T08:32:24.972Z,7.00
2022-10-23T08:34:56.636Z,5.23
2022-10-23T08:37:26.460Z,5.80
2022-10-23T08:39:54.817Z,6.43
2022-10-23T08:43:01.867Z,5.67
2022-10-23T08:45:34.418Z,5.97
2022-10-23T08:48:21.473Z,7.73
2022-10-23T08:51:15.000Z,4.83
2022-10-23T08:53:51.559Z,6.20
2022-10-23T08:56:26.789Z,7.60
2022-10-23T08:59:01.455Z,3.70
2022-10-23T09:01:38.312Z,7.53
2022-10-23T09:04:07.171Z,3.47
2022-10-23T09:06:40.282Z,4.97
2022-10-23T09:09:25.798Z,6.67
2022-10-23T09:12:01.106Z,4.27
2022-10-23T09:14:49.361Z,5.90
2022-10-23T09:17:25.136Z,4.17
2022-10-23T09:19:59.595Z,5.87
2022-10-23T09:22:28.772Z,4.57
2022-10-23T09:24:56.665Z,6.20
2022-10-23T09:27:24.550Z,7.67
2022-10-23T09:29:55.732Z,7.47
2022-10-23T09:32:34.932Z,3.77
2022-10-23T09:35:03.170Z,3.43
2022-10-23T09:37:33.100Z,4.50
2022-10-23T09:40:16.908Z,2.23
2022-10-23T09:42:57.578Z,1.73
2022-10-23T09:45:30.101Z,4.20
2022-10-23T09:48:13.499Z,1.97
2022-10-23T09:50:49.804Z,4.83
2022-10-23T09:53:22.818Z,2.73
2022-10-23T09:55:55.947Z,3.97
2022-10-23T09:58:31.349Z,3.37
2022-10-23T10:01:00.681Z,2.50
2022-10-23T10:03:51.023Z,2.20
2022-10-23T10:06:27.517Z,2.37
2022-10-23T10:08:58.678Z,1.60
2022-10-23T10:11:35.022Z,3.20
2022-10-23T10:14:29.721Z,1.30
2022-10-23T10:17:04.529Z,3.93
2022-10-23T10:19:48.341Z,1.37
2022-10-23T10:22:26.995Z,2.10
2022-10-23T10:25:02.563Z,3.67
2022-10-23T10:27:45.948Z,2.50
2022-10-23T10:30:17.027Z,3.30
2022-10-23T10:32:51.158Z,3.13
2022-10-23T10:35:35.194Z,1.63
2022-10-23T10:38:25.657Z,1.80
2022-10-23T10:41:15.397Z,1.63
2022-10-23T10:43:50.256Z,1.63
2022-10-23T10:46:25.701Z,1.63
2022-10-23T10:49:01.738Z,1.40
2022-10-23T10:51:46.449Z,1.60
2022-10-23T10:54:27.987Z,1.63
2022-10-23T10:56:59.214Z,2.93
2022-10-23T10:59:31.810Z,1.57
2022-10-23T11:02:07.367Z,1.10
2022-10-23T11:04:41.594Z,4.20
2022-10-23T11:07:15.091Z,4.30
2022-10-23T11:09:44.076Z,3.53
2022-10-23T11:12:18.829Z,3.97
2022-10-23T11:14:47.258Z,2.00
2022-10-23T11:17:19.799Z,2.20
2022-10-23T11:19:55.006Z,1.20
2022-10-23T11:22:27.864Z,2.30
2022-10-23T11:25:28.543Z,1.53
2022-10-23T11:28:14.208Z,2.77
2022-10-23T11:30:57.910Z,2.13
2022-10-23T11:33:56.070Z,3.23
2022-10-23T11:36:43.434Z,2.77
2022-10-23T11:39:20.457Z,4.03
2022-10-23T11:41:51.994Z,3.70
2022-10-23T11:44:41.531Z,2.70
2022-10-23T11:47:34.978Z,2.47
2022-10-23T11:50:25.813Z,2.57
2022-10-23T11:53:13.532Z,2.70
2022-10-23T11:56:05.522Z,2.77
2022-10-23T11:58:44.970Z,2.43
2022-10-23T12:01:35.096Z,2.40
2022-10-23T12:04:07.238Z,3.40
2022-10-23T12:06:41.512Z,3.33
2022-10-23T12:09:25.456Z,2.30
2022-10-23T12:12:15.565Z,2.13
2022-10-23T12:14:45.772Z,1.73
2022-10-23T12:17:36.443Z,2.57
2022-10-23T12:20:25.227Z,4.33
2022-10-23T12:23:06.366Z,1.47
2022-10-23T12:25:49.655Z,2.80
2022-10-23T12:28:33.137Z,2.50
2022-10-23T12:31:16.508Z,1.43
2022-10-23T12:33:52.900Z,3.70
2022-10-23T12:36:36.433Z,3.73
2022-10-23T12:39:25.025Z,2.67
2022-10-23T12:41:54.483Z,3.00
2022-10-23T12:44:24.232Z,4.70
2022-10-23T12:46:56.065Z,4.27
2022-10-23T12:49:25.930Z,4.90
2022-10-23T12:51:58.951Z,3.63
2022-10-23T12:54:27.685Z,3.73
2022-10-23T12:56:56.881Z,3.40
2022-10-23T12:59:27.274Z,3.37
2022-10-23T13:01:55.896Z,2.23
2022-10-23T13:04:29.759Z,8.90
2022-10-23T13:06:59.445Z,5.43
2022-10-23T13:09:31.574Z,6.20
2022-10-23T13:12:24.375Z,6.47
2022-10-23T13:15:00.263Z,4.30
2022-10-23T13:17:36.518Z,5.40
2022-10-23T13:20:26.275Z,6.33
2022-10-23T13:23:00.829Z,5.03
2022-10-23T13:25:31.739Z,3.57
2022-10-23T13:28:23.666Z,3.97
2022-10-23T13:31:24.922Z,3.40
2022-10-23T13:34:05.229Z,3.03
2022-10-23T13:36:37.056Z,3.60
2022-10-23T13:39:15.360Z,5.40
2022-10-23T13:41:47.551Z,5.80
2022-10-23T13:44:21.603Z,4.30
2022-10-23T13:46:49.827Z,2.60
2022-10-23T13:49:17.646Z,4.60
2022-10-23T13:51:49.825Z,5.07
2022-10-23T13:54:20.124Z,2.30
2022-10-23T13:56:48.416Z,3.53
2022-10-23T13:59:16.880Z,3.40
2022-10-23T14:01:47.733Z,3.93
2022-10-23T14:04:17.602Z,3.40
2022-10-23T14:06:45.574Z,4.07
2022-10-23T14:09:18.619Z,3.33
2022-10-23T14:11:46.832Z,4.97
2022-10-23T14:14:14.691Z,3.67
2022-10-23T14:16:42.599Z,3.33
2022-10-23T14:19:12.206Z,4.60
2022-10-23T14:21:40.205Z,5.30
2022-10-23T14:24:09.526Z,4.30
2022-10-23T14:26:38.082Z,4.33
2022-10-23T14:29:09.830Z,3.67
2022-10-23T14:31:39.414Z,7.77
2022-10-23T14:34:07.317Z,4.00
2022-10-23T14:36:49.360Z,4.80
2022-10-23T14:39:18.597Z,3.30
2022-10-23T14:41:46.501Z,4.07
2022-10-23T14:44:14.379Z,5.17
2022-10-23T14:46:42.311Z,5.67
2022-10-23T14:49:10.264Z,6.27
2022-10-23T14:51:39.506Z,6.40
2022-10-23T14:54:08.704Z,5.73
2022-10-23T14:56:39.312Z,5.73
2022-10-23T14:59:07.965Z,4.30
2022-10-23T15:01:43.513Z,7.17
2022-10-23T15:04:14.873Z,4.37
2022-10-23T15:06:46.244Z,5.80
2022-10-23T15:09:14.318Z,3.40
2022-10-23T15:11:42.398Z,4.27
2022-10-23T15:14:10.262Z,5.43
2022-10-23T15:16:41.336Z,6.60
2022-10-23T15:19:13.581Z,8.40
2022-10-23T15:21:47.577Z,5.40
2022-10-23T15:24:15.800Z,4.77
2022-10-23T15:26:44.345Z,8.67
2022-10-23T15:29:15.405Z,7.57
2022-10-23T15:32:02.464Z,5.57
2022-10-23T15:34:32.350Z,4.23
2022-10-23T15:37:01.639Z,7.87
2022-10-23T15:39:33.631Z,6.23
2022-10-23T15:42:02.200Z,5.53
2022-10-23T15:44:32.222Z,7.30
2022-10-23T15:47:00.944Z,5.47
2022-10-23T15:49:30.433Z,4.70
2022-10-23T15:51:58.379Z,6.27
2022-10-23T15:54:30.506Z,4.00
2022-10-23T15:57:01.121Z,7.73
2022-10-23T15:59:30.861Z,6.67
2022-10-23T16:01:58.788Z,4.17
2022-10-23T16:04:28.413Z,4.67
2022-10-23T16:06:56.255Z,6.20
2022-10-23T16:09:24.123Z,3.87
2022-10-23T16:11:53.343Z,4.80
2022-10-23T16:14:21.205Z,6.50
2022-10-23T16:16:49.180Z,4.53
2022-10-23T16:19:17.081Z,6.87
2022-10-23T16:21:45.025Z,8.57
2022-10-23T16:24:12.923Z,6.47
2022-10-23T16:26:41.069Z,7.20
2022-10-23T16:29:11.985Z,5.47
2022-10-23T16:31:39.890Z,6.93
2022-10-23T16:34:08.210Z,6.70
2022-10-23T16:36:38.864Z,8.13
2022-10-23T16:39:10.501Z,6.40
2022-10-23T16:41:57.037Z,8.40
2022-10-23T16:44:31.503Z,9.33
2022-10-23T16:47:01.445Z,5.70
2022-10-23T16:49:32.038Z,9.63
2022-10-23T16:51:59.880Z,3.53
2022-10-23T16:54:27.704Z,6.37
2022-10-23T16:56:55.561Z,7.93
2022-10-23T16:59:23.381Z,7.27
2022-10-23T17:01:53.190Z,6.43
2022-10-23T17:04:21.506Z,5.07
2022-10-23T17:06:49.433Z,5.10
2022-10-23T17:09:19.217Z,7.37
2022-10-23T17:11:47.901Z,9.03
2022-10-23T17:14:19.644Z,7.30
2022-10-23T17:16:49.770Z,5.20
2022-10-23T17:22:11.089Z,6.10
2022-10-23T17:24:39.163Z,6.37
2022-10-23T17:27:07.097Z,4.00
2022-10-23T17:29:35.154Z,9.33
2022-10-23T17:32:03.085Z,6.43
2022-10-23T17:34:32.469Z,3.47
2022-10-23T17:37:00.408Z,4.37
2022-10-23T17:39:30.092Z,3.30
2022-10-23T17:41:58.706Z,5.27
2022-10-23T17:44:26.614Z,3.97
2022-10-23T17:46:55.775Z,9.90
2022-10-23T17:49:24.711Z,5.10
2022-10-23T17:51:55.234Z,7.90
2022-10-23T17:54:23.887Z,5.70
2022-10-23T17:56:51.747Z,8.23
2022-10-23T17:59:20.095Z,5.93
2022-10-23T18:01:49.222Z,4.07
2022-10-23T18:04:18.469Z,5.23
2022-10-23T18:06:49.347Z,4.30
2022-10-23T18:09:19.975Z,2.60
2022-10-23T18:11:48.673Z,5.13
2022-10-23T18:14:17.419Z,4.07
2022-10-23T18:16:46.297Z,4.43
2022-10-23T18:19:14.718Z,8.10
2022-10-23T18:21:42.948Z,7.10
2022-10-23T18:24:11.326Z,6.93
2022-10-23T18:26:42.323Z,4.00
2022-10-23T18:29:11.533Z,8.80
2022-10-23T18:31:40.106Z,7.83
2022-10-23T18:34:09.463Z,6.43
2022-10-23T18:36:40.595Z,17.23
2022-10-23T18:39:10.575Z,20.50
2022-10-23T18:41:42.316Z,20.37
2022-10-23T18:44:12.176Z,10.60
2022-10-23T18:46:40.070Z,4.00
2022-10-23T18:49:08.177Z,4.47
2022-10-23T18:51:36.775Z,11.27
2022-10-23T18:54:07.447Z,5.67
2022-10-23T18:56:38.194Z,8.13
2022-10-23T18:59:10.685Z,10.63
2022-10-23T19:01:38.748Z,6.03
2022-10-23T19:04:07.111Z,6.97
2022-10-23T19:06:37.411Z,5.80
2022-10-23T19:09:08.767Z,5.63
2022-10-23T19:11:37.897Z,5.83
2022-10-23T19:14:07.314Z,6.93
2022-10-23T19:16:38.327Z,6.07
2022-10-23T19:19:12.448Z,19.63
2022-10-23T19:21:41.909Z,10.73
2022-10-23T19:24:14.250Z,12.47
2022-10-23T19:26:43.427Z,7.83
2022-10-23T19:29:17.650Z,5.43
2022-10-23T19:31:49.007Z,8.17
2022-10-23T19:34:19.656Z,9.67
2022-10-23T19:36:47.758Z,7.50
2022-10-23T19:39:15.575Z,12.40
2022-10-23T19:41:43.588Z,8.37
2022-10-23T19:44:14.391Z,10.93
2022-10-23T19:46:42.310Z,11.57
2022-10-23T19:49:10.234Z,8.40
2022-10-23T19:51:38.395Z,8.30
2022-10-23T19:54:07.476Z,11.27
2022-10-23T19:56:36.723Z,6.67
2022-10-23T19:59:04.991Z,8.13
2022-10-23T20:01:34.973Z,5.00
2022-10-23T20:04:02.967Z,7.53
2022-10-23T20:06:34.492Z,8.77
2022-10-23T20:09:02.930Z,8.03
2022-10-23T20:11:32.266Z,10.90
2022-10-23T20:14:00.536Z,6.70
2022-10-23T20:16:30.674Z,6.50
2022-10-23T20:19:02.491Z,8.10
2022-10-23T20:21:31.071Z,6.43
2022-10-23T20:23:59.298Z,14.70
2022-10-23T20:26:27.277Z,9.83
2022-10-23T20:28:56.853Z,7.77
2022-10-23T20:31:27.277Z,8.43
2022-10-23T20:33:56.801Z,8.33
2022-10-23T20:36:28.519Z,13.43
2022-10-23T20:38:57.619Z,11.20
2022-10-23T20:41:28.413Z,9.10
2022-10-23T20:43:57.081Z,9.70
2022-10-23T20:46:25.531Z,11.30
2022-10-23T20:48:53.810Z,7.70
2022-10-23T20:51:23.331Z,12.63
2022-10-23T20:53:54.460Z,7.93
2022-10-23T20:56:29.914Z,8.13
2022-10-23T20:58:58.250Z,6.00
2022-10-23T21:01:26.667Z,9.57
2022-10-23T21:03:57.061Z,9.40
2022-10-23T21:06:25.837Z,7.27
2022-10-23T21:08:57.322Z,10.03
2022-10-23T21:11:25.751Z,10.33
2022-10-23T21:13:56.783Z,7.67
2022-10-23T21:16:28.569Z,7.23
2022-10-23T21:19:00.438Z,7.17
2022-10-23T21:21:29.467Z,6.30
2022-10-23T21:23:59.403Z,7.03
2022-10-23T21:26:29.440Z,6.17
2022-10-23T21:29:16.949Z,6.77
2022-10-23T21:31:45.715Z,5.67
2022-10-23T21:34:13.604Z,6.30
2022-10-23T21:37:07.586Z,3.60
2022-10-23T21:39:35.240Z,7.13
2022-10-23T21:42:03.152Z,6.03
2022-10-23T21:44:31.447Z,7.97
2022-10-23T21:46:59.505Z,5.27
2022-10-23T21:49:27.428Z,8.30
2022-10-23T21:51:55.681Z,3.53
2022-10-23T21:54:24.043Z,4.70
2022-10-23T21:56:54.762Z,7.50
2022-10-23T21:59:25.879Z,4.47
2022-10-23T22:01:55.828Z,6.40
2022-10-23T22:04:23.806Z,5.23
2022-10-23T22:06:51.691Z,4.50
2022-10-23T22:09:21.491Z,5.13
2022-10-23T22:11:50.228Z,5.27
2022-10-23T22:14:19.783Z,4.27
2022-10-23T22:16:48.136Z,5.73
2022-10-23T22:19:17.850Z,5.10
2022-10-23T22:21:46.037Z,4.27
2022-10-23T22:24:14.106Z,5.77
2022-10-23T22:26:43.578Z,7.10
2022-10-23T22:29:12.959Z,6.07
2022-10-23T22:31:45.767Z,5.77
2022-10-23T22:34:28.755Z,5.13
2022-10-23T22:37:07.511Z,5.63
2022-10-23T22:39:35.456Z,5.57
2022-10-23T22:42:03.324Z,3.63
2022-10-23T22:44:31.292Z,5.73
2022-10-23T22:47:00.838Z,4.27
2022-10-23T22:49:28.809Z,5.07
2022-10-23T22:51:56.645Z,7.77
2022-10-23T22:54:24.826Z,5.70
2022-10-23T22:56:52.691Z,6.17
2022-10-23T22:59:20.870Z,3.40
2022-10-23T23:01:49.498Z,5.27
2022-10-23T23:04:37.160Z,4.70
2022-10-23T23:07:06.582Z,4.97
2022-10-23T23:09:37.538Z,7.30
2022-10-23T23:12:05.583Z,5.07
2022-10-23T23:14:33.759Z,3.60
2022-10-23T23:17:01.614Z,4.30
2022-10-23T23:19:30.955Z,3.90
2022-10-23T23:21:59.904Z,8.23
2022-10-23T23:24:28.365Z,5.50
2022-10-23T23:26:56.607Z,3.13
2022-10-23T23:29:24.444Z,4.63
2022-10-23T23:31:52.329Z,4.17
2022-10-23T23:34:20.250Z,2.83
2022-10-23T23:36:49.442Z,3.07
2022-10-23T23:39:17.783Z,3.77
2022-10-23T23:41:45.720Z,7.70
2022-10-23T23:44:13.584Z,5.37
2022-10-23T23:46:41.497Z,3.90
2022-10-23T23:49:09.461Z,6.77
2022-10-23T23:51:37.361Z,5.03
2022-10-23T23:54:06.667Z,5.47
2022-10-23T23:56:34.517Z,3.47
2022-10-23T23:59:02.504Z,4.97
